createdAt,value
2023-03-10T00:03:58.364Z,3.70
2023-03-10T00:09:01.912Z,4.32
2023-03-10T00:14:06.746Z,4.30
2023-03-10T00:19:10.160Z,4.97
2023-03-10T00:24:13.612Z,4.63
2023-03-10T00:29:19.386Z,4.00
2023-03-10T00:34:22.844Z,4.82
2023-03-10T00:39:28.577Z,4.47
2023-03-10T00:44:33.346Z,4.45
2023-03-10T00:49:36.878Z,4.10
2023-03-10T00:54:42.145Z,5.00
2023-03-10T00:59:50.875Z,4.97
2023-03-10T01:04:54.306Z,4.78
2023-03-10T01:09:57.694Z,4.45
2023-03-10T01:15:02.497Z,4.85
2023-03-10T01:20:09.782Z,4.25
2023-03-10T01:25:15.928Z,3.93
2023-03-10T01:30:21.086Z,5.22
2023-03-10T01:35:24.544Z,4.20
2023-03-10T01:40:29.340Z,3.40
2023-03-10T01:46:35.839Z,4.85
2023-03-10T01:51:50.164Z,4.25
2023-03-10T01:56:56.408Z,4.97
2023-03-10T02:02:03.582Z,4.78
2023-03-10T02:07:08.403Z,3.92
2023-03-10T02:12:15.290Z,4.65
2023-03-10T02:17:23.954Z,4.88
2023-03-10T02:22:28.135Z,4.60
2023-03-10T02:27:35.348Z,4.50
2023-03-10T02:32:44.469Z,4.87
2023-03-10T02:37:50.712Z,3.72
2023-03-10T02:42:55.756Z,4.93
2023-03-10T02:47:59.481Z,5.22
2023-03-10T02:53:09.365Z,4.63
2023-03-10T02:58:15.952Z,4.40
2023-03-10T03:03:22.521Z,5.32
2023-03-10T03:08:26.103Z,4.32
2023-03-10T03:13:31.043Z,5.10
2023-03-10T03:18:36.914Z,4.03
2023-03-10T03:23:41.070Z,4.25
2023-03-10T03:28:47.517Z,4.00
2023-03-10T03:33:54.159Z,5.80
2023-03-10T03:38:57.939Z,3.80
2023-03-10T03:44:06.342Z,4.40
2023-03-10T03:49:12.337Z,4.13
2023-03-10T03:54:15.979Z,4.57
2023-03-10T03:59:21.689Z,3.90
2023-03-10T04:04:25.235Z,4.70
2023-03-10T04:09:29.821Z,4.30
2023-03-10T04:14:35.195Z,4.55
2023-03-10T04:19:38.650Z,3.70
2023-03-10T04:24:46.207Z,4.70
2023-03-10T04:29:51.207Z,3.75
2023-03-10T04:34:54.820Z,4.20
2023-03-10T04:39:58.757Z,4.63
2023-03-10T04:45:03.726Z,4.68
2023-03-10T04:50:09.260Z,4.50
2023-03-10T04:55:14.325Z,4.05
2023-03-10T05:00:21.007Z,3.78
2023-03-10T05:05:25.709Z,4.85
2023-03-10T05:10:29.218Z,4.70
2023-03-10T05:15:37.095Z,3.85
2023-03-10T05:20:41.139Z,3.63
2023-03-10T05:25:44.711Z,3.50
2023-03-10T05:30:51.961Z,3.53
2023-03-10T05:35:55.548Z,3.75
2023-03-10T05:40:59.330Z,3.95
2023-03-10T05:46:04.799Z,3.88
2023-03-10T05:51:14.046Z,4.07
2023-03-10T05:56:20.374Z,3.83
2023-03-10T06:01:29.484Z,3.97
2023-03-10T06:06:33.669Z,4.25
2023-03-10T06:11:37.264Z,4.75
2023-03-10T06:16:42.059Z,3.40
2023-03-10T06:21:45.903Z,3.60
2023-03-10T06:26:50.110Z,4.05
2023-03-10T06:31:55.113Z,2.85
2023-03-10T06:36:58.609Z,3.67
2023-03-10T06:42:02.609Z,4.28
2023-03-10T06:47:08.080Z,3.63
2023-03-10T06:52:11.603Z,3.15
2023-03-10T06:57:15.039Z,4.07
2023-03-10T07:02:20.300Z,3.47
2023-03-10T07:07:23.792Z,3.42
2023-03-10T07:12:27.324Z,4.40
2023-03-10T07:17:32.086Z,4.43
2023-03-10T07:22:35.480Z,3.30
2023-03-10T07:27:38.964Z,3.95
2023-03-10T07:32:43.813Z,3.55
2023-03-10T07:37:47.405Z,4.38
2023-03-10T07:42:50.817Z,4.18
2023-03-10T07:47:56.231Z,2.70
2023-03-10T07:52:59.632Z,3.55
2023-03-10T07:58:03.040Z,3.33
2023-03-10T08:03:07.831Z,4.25
2023-03-10T08:08:11.826Z,4.45
2023-03-10T08:13:15.668Z,3.60
2023-03-10T08:18:20.427Z,3.38
2023-03-10T08:23:25.247Z,3.35
2023-03-10T08:28:30.637Z,4.43
2023-03-10T08:33:36.180Z,4.45
2023-03-10T08:38:40.110Z,3.15
2023-03-10T08:43:44.683Z,3.08
2023-03-10T08:48:50.602Z,4.75
2023-03-10T08:53:54.792Z,3.65
2023-03-10T08:59:00.641Z,3.35
2023-03-10T09:04:09.169Z,4.65
2023-03-10T09:09:13.179Z,3.28
2023-03-10T09:14:17.584Z,3.97
2023-03-10T09:19:22.373Z,3.30
2023-03-10T09:24:25.980Z,3.25
2023-03-10T09:29:42.758Z,3.22
2023-03-10T09:34:48.438Z,4.97
2023-03-10T09:39:52.618Z,3.65
2023-03-10T09:45:08.772Z,4.32
2023-03-10T09:50:35.140Z,3.13
2023-03-10T09:55:47.393Z,3.78
2023-03-10T10:00:51.787Z,3.35
2023-03-10T10:05:58.432Z,3.45
2023-03-10T10:11:02.867Z,2.83
2023-03-10T10:16:34.014Z,3.35
2023-03-10T10:21:46.906Z,3.92
2023-03-10T10:26:50.338Z,2.80
2023-03-10T10:32:13.393Z,3.42
2023-03-10T10:37:34.016Z,2.53
2023-03-10T10:42:38.977Z,2.90
2023-03-10T10:47:50.968Z,3.15
2023-03-10T10:53:23.123Z,3.00
2023-03-10T10:58:32.711Z,3.03
2023-03-10T11:03:39.953Z,2.83
2023-03-10T11:08:50.812Z,2.63
2023-03-10T11:14:21.352Z,2.70
2023-03-10T11:19:34.607Z,2.42
2023-03-10T11:24:48.186Z,2.92
2023-03-10T11:30:10.853Z,1.52
2023-03-10T11:35:25.719Z,2.10
2023-03-10T11:40:40.742Z,1.88
2023-03-10T11:45:52.784Z,2.20
2023-03-10T11:50:59.660Z,1.77
2023-03-10T11:56:09.481Z,1.48
2023-03-10T12:01:17.536Z,2.00
2023-03-10T12:06:26.875Z,2.38
2023-03-10T12:11:32.288Z,2.55
2023-03-10T12:16:39.458Z,2.55
2023-03-10T12:21:42.858Z,2.40
2023-03-10T12:27:05.649Z,1.63
2023-03-10T12:32:47.224Z,1.70
2023-03-10T12:37:50.857Z,2.78
2023-03-10T12:42:55.666Z,2.78
2023-03-10T12:48:05.365Z,2.78
2023-03-10T12:53:41.166Z,1.95
2023-03-10T12:58:54.011Z,2.97
2023-03-10T13:03:58.205Z,2.17
2023-03-10T13:09:11.661Z,1.95
2023-03-10T13:14:20.779Z,2.10
2023-03-10T13:19:28.015Z,1.77
2023-03-10T13:24:34.376Z,1.70
2023-03-10T13:29:40.184Z,1.65
2023-03-10T13:34:43.621Z,2.05
2023-03-10T13:39:47.114Z,1.67
2023-03-10T13:44:52.142Z,2.33
2023-03-10T13:49:59.828Z,1.30
2023-03-10T13:55:14.301Z,1.50
2023-03-10T14:00:23.439Z,2.28
2023-03-10T14:05:43.605Z,1.45
2023-03-10T14:10:47.050Z,2.28
2023-03-10T14:15:56.809Z,1.48
2023-03-10T14:21:29.909Z,1.67
2023-03-10T14:26:33.552Z,1.95
2023-03-10T14:31:38.344Z,1.80
2023-03-10T14:36:42.118Z,3.13
2023-03-10T14:41:47.386Z,0.95
2023-03-10T14:46:53.266Z,1.77
2023-03-10T14:51:57.002Z,0.88
2023-03-10T14:57:00.422Z,2.45
2023-03-10T15:02:14.404Z,1.63
2023-03-10T15:07:18.575Z,2.65
2023-03-10T15:12:22.062Z,0.90
2023-03-10T15:17:26.802Z,1.10
2023-03-10T15:22:30.183Z,1.30
2023-03-10T15:27:33.579Z,2.13
2023-03-10T15:32:38.323Z,1.88
2023-03-10T15:37:41.979Z,1.52
2023-03-10T15:42:46.126Z,1.77
2023-03-10T15:47:51.475Z,3.03
2023-03-10T15:52:58.291Z,1.65
2023-03-10T15:58:02.072Z,1.30
2023-03-10T16:03:07.345Z,1.63
2023-03-10T16:08:10.876Z,3.00
2023-03-10T16:13:14.275Z,1.77
2023-03-10T16:18:19.008Z,2.35
2023-03-10T16:23:22.425Z,1.88
2023-03-10T16:28:25.921Z,3.00
2023-03-10T16:33:31.331Z,2.17
2023-03-10T16:38:36.841Z,2.42
2023-03-10T16:43:40.760Z,2.90
2023-03-10T16:48:48.901Z,2.67
2023-03-10T16:58:57.311Z,3.20
2023-03-10T17:04:02.134Z,3.08
2023-03-10T17:09:09.156Z,1.77
2023-03-10T17:14:17.446Z,2.13
2023-03-10T17:19:28.701Z,1.83
2023-03-10T17:24:32.402Z,2.42
2023-03-10T17:29:36.014Z,2.55
2023-03-10T17:34:41.001Z,2.22
2023-03-10T17:39:44.387Z,2.83
2023-03-10T17:44:47.786Z,2.28
2023-03-10T17:49:52.819Z,1.52
2023-03-10T17:54:56.492Z,2.10
2023-03-10T17:59:59.875Z,2.60
2023-03-10T18:05:05.137Z,1.58
2023-03-10T18:10:11.153Z,2.40
2023-03-10T18:15:15.029Z,2.35
2023-03-10T18:20:20.028Z,2.70
2023-03-10T18:25:23.457Z,2.45
2023-03-10T18:30:26.905Z,3.53
2023-03-10T18:35:32.072Z,3.20
2023-03-10T18:40:35.673Z,3.28
2023-03-10T18:45:40.796Z,2.92
2023-03-10T18:50:45.770Z,4.72
2023-03-10T18:55:49.333Z,3.08
2023-03-10T19:00:52.936Z,2.72
2023-03-10T19:05:57.904Z,3.03
2023-03-10T19:11:01.949Z,3.00
2023-03-10T19:16:08.166Z,2.28
2023-03-10T19:21:13.046Z,3.55
2023-03-10T19:26:16.571Z,3.40
2023-03-10T19:31:21.416Z,3.50
2023-03-10T19:36:27.058Z,3.55
2023-03-10T19:41:30.488Z,4.32
2023-03-10T19:46:34.073Z,3.97
2023-03-10T19:51:38.892Z,4.03
2023-03-10T19:56:42.332Z,4.97
2023-03-10T20:01:48.794Z,3.20
2023-03-10T20:06:53.664Z,3.92
2023-03-10T20:11:57.742Z,3.03
2023-03-10T20:17:01.141Z,4.63
2023-03-10T20:22:05.906Z,3.28
2023-03-10T20:27:09.326Z,2.83
2023-03-10T20:32:12.857Z,3.67
2023-03-10T20:37:17.708Z,3.92
2023-03-10T20:42:21.109Z,4.90
2023-03-10T20:47:24.539Z,3.42
2023-03-10T20:52:29.352Z,4.55
2023-03-10T20:57:33.530Z,4.45
2023-03-10T21:02:36.942Z,3.42
2023-03-10T21:07:41.718Z,3.28
2023-03-10T21:12:46.053Z,3.63
2023-03-10T21:17:49.975Z,4.22
2023-03-10T21:22:54.769Z,3.10
2023-03-10T21:27:59.754Z,3.30
2023-03-10T21:33:03.161Z,4.35
2023-03-10T21:38:07.937Z,4.28
2023-03-10T21:43:11.933Z,4.90
2023-03-10T21:48:15.373Z,3.03
2023-03-10T21:53:20.356Z,3.42
2023-03-10T21:58:24.958Z,4.75
2023-03-10T22:03:28.541Z,2.65
2023-03-10T22:08:34.335Z,3.42
2023-03-10T22:13:39.599Z,3.60
2023-03-10T22:18:43.211Z,3.75
2023-03-10T22:23:48.026Z,4.40
2023-03-10T22:28:51.400Z,3.45
2023-03-10T22:33:54.891Z,4.28
2023-03-10T22:38:59.673Z,3.78
2023-03-10T22:44:03.458Z,4.18
2023-03-10T22:49:06.898Z,4.05
2023-03-10T22:54:11.673Z,3.90
2023-03-10T22:59:15.033Z,3.90
2023-03-10T23:04:18.479Z,3.45
2023-03-10T23:09:23.562Z,3.78
2023-03-10T23:14:27.026Z,3.58
2023-03-10T23:19:30.473Z,3.35
2023-03-10T23:24:35.320Z,3.70
2023-03-10T23:29:38.739Z,3.80
2023-03-10T23:34:42.286Z,4.30
2023-03-10T23:39:47.488Z,3.05
2023-03-10T23:44:51.599Z,3.97
2023-03-10T23:49:56.837Z,4.32
2023-03-10T23:55:02.372Z,5.22
